sensor_id;sensor_type;location;lat;lon;timestamp;temperature;humidity
3648;DHT22;1840;48.892;15.312;2023-02-01T00:00:40;0.60;97.10
3648;DHT22;1840;48.892;15.312;2023-02-01T00:03:07;0.50;97.40
3648;DHT22;1840;48.892;15.312;2023-02-01T00:05:36;0.60;97.40
3648;DHT22;1840;48.892;15.312;2023-02-01T00:08:04;0.50;97.20
3648;DHT22;1840;48.892;15.312;2023-02-01T00:10:32;0.60;97.40
3648;DHT22;1840;48.892;15.312;2023-02-01T00:13:00;0.60;97.10
3648;DHT22;1840;48.892;15.312;2023-02-01T00:15:27;0.30;97.70
3648;DHT22;1840;48.892;15.312;2023-02-01T00:17:57;0.20;97.60
3648;DHT22;1840;48.892;15.312;2023-02-01T00:20:25;0.30;97.80
3648;DHT22;1840;48.892;15.312;2023-02-01T00:22:53;0.00;98.00
3648;DHT22;1840;48.892;15.312;2023-02-01T00:25:21;0.10;98.20
3648;DHT22;1840;48.892;15.312;2023-02-01T00:27:49;0.30;97.90
3648;DHT22;1840;48.892;15.312;2023-02-01T00:30:17;0.30;97.70
3648;DHT22;1840;48.892;15.312;2023-02-01T00:32:46;0.20;97.80
3648;DHT22;1840;48.892;15.312;2023-02-01T00:35:15;0.30;97.80
3648;DHT22;1840;48.892;15.312;2023-02-01T00:37:43;0.30;97.60
3648;DHT22;1840;48.892;15.312;2023-02-01T00:40:12;0.20;98.20
3648;DHT22;1840;48.892;15.312;2023-02-01T00:42:40;0.10;98.10
3648;DHT22;1840;48.892;15.312;2023-02-01T00:45:09;0.30;98.00
3648;DHT22;1840;48.892;15.312;2023-02-01T00:47:37;0.20;98.10
3648;DHT22;1840;48.892;15.312;2023-02-01T00:50:05;0.50;97.70
3648;DHT22;1840;48.892;15.312;2023-02-01T00:52:34;0.50;97.80
3648;DHT22;1840;48.892;15.312;2023-02-01T00:55:03;0.60;97.60
3648;DHT22;1840;48.892;15.312;2023-02-01T00:57:31;0.60;97.60
3648;DHT22;1840;48.892;15.312;2023-02-01T00:59:59;0.60;97.60
3648;DHT22;1840;48.892;15.312;2023-02-01T01:02:27;0.60;97.70
3648;DHT22;1840;48.892;15.312;2023-02-01T01:04:55;0.70;97.20
3648;DHT22;1840;48.892;15.312;2023-02-01T01:07:23;0.70;97.60
3648;DHT22;1840;48.892;15.312;2023-02-01T01:09:52;0.70;97.30
3648;DHT22;1840;48.892;15.312;2023-02-01T01:12:21;0.70;97.60
3648;DHT22;1840;48.892;15.312;2023-02-01T01:14:49;0.60;97.20
3648;DHT22;1840;48.892;15.312;2023-02-01T01:17:17;0.40;97.60
3648;DHT22;1840;48.892;15.312;2023-02-01T01:19:45;0.50;97.60
3648;DHT22;1840;48.892;15.312;2023-02-01T01:22:12;0.50;97.60
3648;DHT22;1840;48.892;15.312;2023-02-01T01:24:40;0.60;97.60
3648;DHT22;1840;48.892;15.312;2023-02-01T01:27:10;0.50;97.50
3648;DHT22;1840;48.892;15.312;2023-02-01T01:29:38;0.60;97.50
3648;DHT22;1840;48.892;15.312;2023-02-01T01:32:06;0.70;97.30
3648;DHT22;1840;48.892;15.312;2023-02-01T01:34:33;0.50;97.60
3648;DHT22;1840;48.892;15.312;2023-02-01T01:37:01;0.70;97.70
3648;DHT22;1840;48.892;15.312;2023-02-01T01:39:29;0.70;97.50
3648;DHT22;1840;48.892;15.312;2023-02-01T01:41:57;0.80;97.50
3648;DHT22;1840;48.892;15.312;2023-02-01T01:47:44;0.80;97.40
3648;DHT22;1840;48.892;15.312;2023-02-01T01:50:16;0.90;97.60
3648;DHT22;1840;48.892;15.312;2023-02-01T01:52:49;1.00;97.40
3648;DHT22;1840;48.892;15.312;2023-02-01T01:55:19;0.80;97.40
3648;DHT22;1840;48.892;15.312;2023-02-01T01:57:52;0.90;97.40
3648;DHT22;1840;48.892;15.312;2023-02-01T02:00:21;1.10;97.30
3648;DHT22;1840;48.892;15.312;2023-02-01T02:02:54;1.10;97.30
3648;DHT22;1840;48.892;15.312;2023-02-01T02:05:24;1.00;97.60
3648;DHT22;1840;48.892;15.312;2023-02-01T02:07:53;1.00;97.50
3648;DHT22;1840;48.892;15.312;2023-02-01T02:10:24;0.90;97.60
3648;DHT22;1840;48.892;15.312;2023-02-01T02:13:14;0.80;97.90
3648;DHT22;1840;48.892;15.312;2023-02-01T02:15:47;0.80;97.70
3648;DHT22;1840;48.892;15.312;2023-02-01T02:18:25;0.70;97.70
3648;DHT22;1840;48.892;15.312;2023-02-01T02:21:14;0.80;97.90
3648;DHT22;1840;48.892;15.312;2023-02-01T02:24:10;0.80;97.70
3648;DHT22;1840;48.892;15.312;2023-02-01T02:27:00;0.90;97.70
3648;DHT22;1840;48.892;15.312;2023-02-01T02:29:59;0.90;97.40
3648;DHT22;1840;48.892;15.312;2023-02-01T02:32:53;0.90;97.60
3648;DHT22;1840;48.892;15.312;2023-02-01T02:35:32;0.90;97.80
3648;DHT22;1840;48.892;15.312;2023-02-01T02:38:12;0.80;97.70
3648;DHT22;1840;48.892;15.312;2023-02-01T02:40:46;0.80;97.80
3648;DHT22;1840;48.892;15.312;2023-02-01T02:43:20;0.80;97.70
3648;DHT22;1840;48.892;15.312;2023-02-01T02:46:15;0.80;97.60
3648;DHT22;1840;48.892;15.312;2023-02-01T02:49:04;0.80;97.50
3648;DHT22;1840;48.892;15.312;2023-02-01T02:51:41;0.90;97.40
3648;DHT22;1840;48.892;15.312;2023-02-01T02:54:31;0.80;97.50
3648;DHT22;1840;48.892;15.312;2023-02-01T02:57:19;0.60;97.60
3648;DHT22;1840;48.892;15.312;2023-02-01T03:00:12;0.80;97.50
3648;DHT22;1840;48.892;15.312;2023-02-01T03:02:57;0.90;97.40
3648;DHT22;1840;48.892;15.312;2023-02-01T03:05:44;1.10;97.30
3648;DHT22;1840;48.892;15.312;2023-02-01T03:08:17;1.00;97.10
3648;DHT22;1840;48.892;15.312;2023-02-01T03:10:53;1.00;97.10
3648;DHT22;1840;48.892;15.312;2023-02-01T03:13:31;1.10;96.90
3648;DHT22;1840;48.892;15.312;2023-02-01T03:16:04;1.20;96.90
3648;DHT22;1840;48.892;15.312;2023-02-01T03:18:38;1.20;97.00
3648;DHT22;1840;48.892;15.312;2023-02-01T03:21:10;1.10;97.10
3648;DHT22;1840;48.892;15.312;2023-02-01T03:23:42;1.20;96.90
3648;DHT22;1840;48.892;15.312;2023-02-01T03:26:13;1.30;96.70
3648;DHT22;1840;48.892;15.312;2023-02-01T03:28:44;1.30;96.70
3648;DHT22;1840;48.892;15.312;2023-02-01T03:31:15;1.30;96.70
3648;DHT22;1840;48.892;15.312;2023-02-01T03:33:43;1.30;96.50
3648;DHT22;1840;48.892;15.312;2023-02-01T03:36:17;1.30;96.70
3648;DHT22;1840;48.892;15.312;2023-02-01T03:38:55;1.10;96.80
3648;DHT22;1840;48.892;15.312;2023-02-01T03:41:30;1.20;96.60
3648;DHT22;1840;48.892;15.312;2023-02-01T03:44:05;1.40;96.50
3648;DHT22;1840;48.892;15.312;2023-02-01T03:46:37;1.30;96.20
3648;DHT22;1840;48.892;15.312;2023-02-01T03:49:09;1.20;96.30
3648;DHT22;1840;48.892;15.312;2023-02-01T03:51:40;1.10;96.50
3648;DHT22;1840;48.892;15.312;2023-02-01T03:54:13;1.00;96.80
3648;DHT22;1840;48.892;15.312;2023-02-01T03:56:44;0.90;96.90
3648;DHT22;1840;48.892;15.312;2023-02-01T03:59:14;1.10;96.60
3648;DHT22;1840;48.892;15.312;2023-02-01T04:01:42;1.30;96.20
3648;DHT22;1840;48.892;15.312;2023-02-01T04:04:10;0.90;96.60
3648;DHT22;1840;48.892;15.312;2023-02-01T04:06:46;1.10;96.60
3648;DHT22;1840;48.892;15.312;2023-02-01T04:09:16;1.00;96.90
3648;DHT22;1840;48.892;15.312;2023-02-01T04:11:44;1.10;96.80
3648;DHT22;1840;48.892;15.312;2023-02-01T04:14:12;0.90;97.40
3648;DHT22;1840;48.892;15.312;2023-02-01T04:16:40;0.90;97.50
3648;DHT22;1840;48.892;15.312;2023-02-01T04:19:08;1.00;97.70
3648;DHT22;1840;48.892;15.312;2023-02-01T04:21:36;0.90;97.80
3648;DHT22;1840;48.892;15.312;2023-02-01T04:24:05;0.90;98.20
3648;DHT22;1840;48.892;15.312;2023-02-01T04:26:34;1.00;97.80
3648;DHT22;1840;48.892;15.312;2023-02-01T04:29:03;0.80;98.30
3648;DHT22;1840;48.892;15.312;2023-02-01T04:31:31;0.80;98.20
3648;DHT22;1840;48.892;15.312;2023-02-01T04:33:59;0.90;98.00
3648;DHT22;1840;48.892;15.312;2023-02-01T04:36:27;0.80;98.40
3648;DHT22;1840;48.892;15.312;2023-02-01T04:38:55;0.90;98.30
3648;DHT22;1840;48.892;15.312;2023-02-01T04:41:23;0.70;98.50
3648;DHT22;1840;48.892;15.312;2023-02-01T04:43:53;0.90;98.20
3648;DHT22;1840;48.892;15.312;2023-02-01T04:46:21;1.00;98.00
3648;DHT22;1840;48.892;15.312;2023-02-01T04:48:49;1.00;97.90
3648;DHT22;1840;48.892;15.312;2023-02-01T04:51:17;1.00;98.10
3648;DHT22;1840;48.892;15.312;2023-02-01T04:53:45;0.90;98.20
3648;DHT22;1840;48.892;15.312;2023-02-01T04:56:13;0.90;98.10
3648;DHT22;1840;48.892;15.312;2023-02-01T04:58:41;1.10;97.50
3648;DHT22;1840;48.892;15.312;2023-02-01T05:01:10;0.90;98.00
3648;DHT22;1840;48.892;15.312;2023-02-01T05:03:38;0.90;97.90
3648;DHT22;1840;48.892;15.312;2023-02-01T05:06:07;1.00;98.20
3648;DHT22;1840;48.892;15.312;2023-02-01T05:08:34;1.10;98.00
3648;DHT22;1840;48.892;15.312;2023-02-01T05:11:04;1.00;97.90
3648;DHT22;1840;48.892;15.312;2023-02-01T05:13:32;1.10;98.00
3648;DHT22;1840;48.892;15.312;2023-02-01T05:16:16;1.10;97.90
3648;DHT22;1840;48.892;15.312;2023-02-01T05:18:44;1.30;97.90
3648;DHT22;1840;48.892;15.312;2023-02-01T05:21:12;1.30;97.70
3648;DHT22;1840;48.892;15.312;2023-02-01T05:23:40;1.20;97.90
3648;DHT22;1840;48.892;15.312;2023-02-01T05:26:22;1.00;98.40
3648;DHT22;1840;48.892;15.312;2023-02-01T05:28:51;1.00;98.30
3648;DHT22;1840;48.892;15.312;2023-02-01T05:31:20;1.00;98.50
3648;DHT22;1840;48.892;15.312;2023-02-01T05:33:48;0.60;98.70
3648;DHT22;1840;48.892;15.312;2023-02-01T05:36:16;0.70;99.00
3648;DHT22;1840;48.892;15.312;2023-02-01T05:38:44;0.80;98.90
3648;DHT22;1840;48.892;15.312;2023-02-01T05:41:12;0.90;98.80
3648;DHT22;1840;48.892;15.312;2023-02-01T05:43:40;0.80;99.00
3648;DHT22;1840;48.892;15.312;2023-02-01T05:46:09;0.80;98.90
3648;DHT22;1840;48.892;15.312;2023-02-01T05:48:41;0.70;99.10
3648;DHT22;1840;48.892;15.312;2023-02-01T05:51:10;0.80;98.90
3648;DHT22;1840;48.892;15.312;2023-02-01T05:53:38;0.80;99.00
3648;DHT22;1840;48.892;15.312;2023-02-01T05:56:07;0.80;99.10
3648;DHT22;1840;48.892;15.312;2023-02-01T05:58:35;0.70;99.10
3648;DHT22;1840;48.892;15.312;2023-02-01T06:01:03;0.70;99.10
3648;DHT22;1840;48.892;15.312;2023-02-01T06:03:32;0.70;99.30
3648;DHT22;1840;48.892;15.312;2023-02-01T06:06:01;0.70;99.20
3648;DHT22;1840;48.892;15.312;2023-02-01T06:08:30;0.50;99.40
3648;DHT22;1840;48.892;15.312;2023-02-01T06:10:59;0.70;99.50
3648;DHT22;1840;48.892;15.312;2023-02-01T06:13:27;0.60;99.40
3648;DHT22;1840;48.892;15.312;2023-02-01T06:15:56;0.60;99.50
3648;DHT22;1840;48.892;15.312;2023-02-01T06:18:24;0.60;99.50
3648;DHT22;1840;48.892;15.312;2023-02-01T06:20:53;0.60;99.30
3648;DHT22;1840;48.892;15.312;2023-02-01T06:23:22;0.50;99.40
3648;DHT22;1840;48.892;15.312;2023-02-01T06:25:51;0.60;99.40
3648;DHT22;1840;48.892;15.312;2023-02-01T06:28:20;0.60;99.40
3648;DHT22;1840;48.892;15.312;2023-02-01T06:30:48;0.70;99.20
3648;DHT22;1840;48.892;15.312;2023-02-01T06:33:16;0.70;99.10
3648;DHT22;1840;48.892;15.312;2023-02-01T06:35:44;0.40;99.70
3648;DHT22;1840;48.892;15.312;2023-02-01T06:38:12;0.40;99.90
3648;DHT22;1840;48.892;15.312;2023-02-01T06:40:41;0.30;99.90
3648;DHT22;1840;48.892;15.312;2023-02-01T06:43:10;0.30;99.90
3648;DHT22;1840;48.892;15.312;2023-02-01T06:45:38;0.30;99.90
3648;DHT22;1840;48.892;15.312;2023-02-01T06:48:08;0.40;99.90
3648;DHT22;1840;48.892;15.312;2023-02-01T06:50:36;0.40;99.90
3648;DHT22;1840;48.892;15.312;2023-02-01T06:53:04;0.70;99.90
3648;DHT22;1840;48.892;15.312;2023-02-01T06:55:32;0.80;99.90
3648;DHT22;1840;48.892;15.312;2023-02-01T06:58:01;0.90;99.90
3648;DHT22;1840;48.892;15.312;2023-02-01T07:00:29;0.90;99.70
3648;DHT22;1840;48.892;15.312;2023-02-01T07:02:58;1.00;99.40
3648;DHT22;1840;48.892;15.312;2023-02-01T07:05:26;0.90;99.80
3648;DHT22;1840;48.892;15.312;2023-02-01T07:07:55;0.80;99.90
3648;DHT22;1840;48.892;15.312;2023-02-01T07:10:23;1.00;99.40
3648;DHT22;1840;48.892;15.312;2023-02-01T07:12:51;0.90;99.80
3648;DHT22;1840;48.892;15.312;2023-02-01T07:15:20;0.90;99.50
3648;DHT22;1840;48.892;15.312;2023-02-01T07:17:51;0.90;99.80
3648;DHT22;1840;48.892;15.312;2023-02-01T07:20:18;0.90;99.80
3648;DHT22;1840;48.892;15.312;2023-02-01T07:22:47;0.80;99.60
3648;DHT22;1840;48.892;15.312;2023-02-01T07:25:16;0.90;99.90
3648;DHT22;1840;48.892;15.312;2023-02-01T07:27:44;0.60;99.90
3648;DHT22;1840;48.892;15.312;2023-02-01T07:30:13;0.50;99.90
3648;DHT22;1840;48.892;15.312;2023-02-01T07:32:42;0.60;99.90
3648;DHT22;1840;48.892;15.312;2023-02-01T07:35:10;0.70;99.90
3648;DHT22;1840;48.892;15.312;2023-02-01T07:37:38;0.70;99.90
3648;DHT22;1840;48.892;15.312;2023-02-01T07:40:07;0.40;99.90
3648;DHT22;1840;48.892;15.312;2023-02-01T07:42:35;0.50;99.90
3648;DHT22;1840;48.892;15.312;2023-02-01T07:45:04;0.40;99.90
3648;DHT22;1840;48.892;15.312;2023-02-01T07:47:48;0.40;99.90
3648;DHT22;1840;48.892;15.312;2023-02-01T07:50:16;0.40;99.90
3648;DHT22;1840;48.892;15.312;2023-02-01T07:52:44;0.60;99.90
3648;DHT22;1840;48.892;15.312;2023-02-01T07:55:12;0.70;99.90
3648;DHT22;1840;48.892;15.312;2023-02-01T07:57:41;0.50;99.90
3648;DHT22;1840;48.892;15.312;2023-02-01T08:00:10;0.60;99.90
3648;DHT22;1840;48.892;15.312;2023-02-01T08:02:58;0.60;99.90
3648;DHT22;1840;48.892;15.312;2023-02-01T08:05:27;0.60;99.90
3648;DHT22;1840;48.892;15.312;2023-02-01T08:07:55;0.70;99.90
3648;DHT22;1840;48.892;15.312;2023-02-01T08:10:23;0.60;99.90
3648;DHT22;1840;48.892;15.312;2023-02-01T08:12:51;0.60;99.90
3648;DHT22;1840;48.892;15.312;2023-02-01T08:15:19;0.40;99.90
3648;DHT22;1840;48.892;15.312;2023-02-01T08:17:47;0.10;99.90
3648;DHT22;1840;48.892;15.312;2023-02-01T08:20:17;-0.10;99.90
3648;DHT22;1840;48.892;15.312;2023-02-01T08:22:49;-0.10;99.90
3648;DHT22;1840;48.892;15.312;2023-02-01T08:25:20;0.10;99.90
3648;DHT22;1840;48.892;15.312;2023-02-01T08:27:48;0.20;99.90
3648;DHT22;1840;48.892;15.312;2023-02-01T08:30:16;0.00;99.90
3648;DHT22;1840;48.892;15.312;2023-02-01T08:32:44;0.00;99.90
3648;DHT22;1840;48.892;15.312;2023-02-01T08:35:12;0.00;99.90
3648;DHT22;1840;48.892;15.312;2023-02-01T08:37:42;0.00;99.90
3648;DHT22;1840;48.892;15.312;2023-02-01T08:40:11;-0.10;99.90
3648;DHT22;1840;48.892;15.312;2023-02-01T08:42:40;0.00;99.90
3648;DHT22;1840;48.892;15.312;2023-02-01T08:45:23;0.00;99.90
3648;DHT22;1840;48.892;15.312;2023-02-01T08:47:52;0.20;99.90
3648;DHT22;1840;48.892;15.312;2023-02-01T08:50:21;0.30;99.90
3648;DHT22;1840;48.892;15.312;2023-02-01T08:52:51;0.10;99.90
3648;DHT22;1840;48.892;15.312;2023-02-01T08:55:20;0.40;99.90
3648;DHT22;1840;48.892;15.312;2023-02-01T08:57:48;0.50;99.90
3648;DHT22;1840;48.892;15.312;2023-02-01T09:00:17;0.60;99.90
3648;DHT22;1840;48.892;15.312;2023-02-01T09:02:45;0.50;99.90
3648;DHT22;1840;48.892;15.312;2023-02-01T09:05:13;0.60;99.90
3648;DHT22;1840;48.892;15.312;2023-02-01T09:07:43;0.40;99.90
3648;DHT22;1840;48.892;15.312;2023-02-01T09:10:12;0.30;99.90
3648;DHT22;1840;48.892;15.312;2023-02-01T09:12:44;0.50;99.90
3648;DHT22;1840;48.892;15.312;2023-02-01T09:15:12;0.60;99.90
3648;DHT22;1840;48.892;15.312;2023-02-01T09:17:40;0.50;99.90
3648;DHT22;1840;48.892;15.312;2023-02-01T09:20:10;0.60;99.90
3648;DHT22;1840;48.892;15.312;2023-02-01T09:22:39;0.50;99.90
3648;DHT22;1840;48.892;15.312;2023-02-01T09:25:08;0.50;99.90
3648;DHT22;1840;48.892;15.312;2023-02-01T09:27:37;0.50;99.90
3648;DHT22;1840;48.892;15.312;2023-02-01T09:30:06;0.70;99.90
3648;DHT22;1840;48.892;15.312;2023-02-01T09:32:35;0.70;99.90
3648;DHT22;1840;48.892;15.312;2023-02-01T09:35:04;0.70;99.90
3648;DHT22;1840;48.892;15.312;2023-02-01T09:37:32;0.80;99.90
3648;DHT22;1840;48.892;15.312;2023-02-01T09:40:00;0.60;99.90
3648;DHT22;1840;48.892;15.312;2023-02-01T09:42:46;0.60;99.90
3648;DHT22;1840;48.892;15.312;2023-02-01T09:45:24;0.60;99.90
3648;DHT22;1840;48.892;15.312;2023-02-01T09:47:57;0.80;99.90
3648;DHT22;1840;48.892;15.312;2023-02-01T09:50:34;0.80;99.90
3648;DHT22;1840;48.892;15.312;2023-02-01T09:53:06;0.60;99.90
3648;DHT22;1840;48.892;15.312;2023-02-01T09:55:40;0.50;99.90
3648;DHT22;1840;48.892;15.312;2023-02-01T09:58:16;0.90;99.90
3648;DHT22;1840;48.892;15.312;2023-02-01T10:00:49;0.90;99.90
3648;DHT22;1840;48.892;15.312;2023-02-01T10:03:18;1.10;99.90
3648;DHT22;1840;48.892;15.312;2023-02-01T10:06:10;1.20;99.90
3648;DHT22;1840;48.892;15.312;2023-02-01T10:08:59;1.30;99.90
3648;DHT22;1840;48.892;15.312;2023-02-01T10:11:32;1.50;99.90
3648;DHT22;1840;48.892;15.312;2023-02-01T10:14:39;1.40;99.90
3648;DHT22;1840;48.892;15.312;2023-02-01T10:17:20;1.40;99.90
3648;DHT22;1840;48.892;15.312;2023-02-01T10:19:58;1.80;99.90
3648;DHT22;1840;48.892;15.312;2023-02-01T10:22:40;1.70;99.90
3648;DHT22;1840;48.892;15.312;2023-02-01T10:25:36;1.70;99.80
3648;DHT22;1840;48.892;15.312;2023-02-01T10:28:04;1.60;99.60
3648;DHT22;1840;48.892;15.312;2023-02-01T10:30:41;1.60;99.70
3648;DHT22;1840;48.892;15.312;2023-02-01T10:33:15;1.70;99.70
3648;DHT22;1840;48.892;15.312;2023-02-01T10:35:45;1.70;99.60
3648;DHT22;1840;48.892;15.312;2023-02-01T10:38:22;1.70;99.40
3648;DHT22;1840;48.892;15.312;2023-02-01T10:40:53;1.70;99.20
3648;DHT22;1840;48.892;15.312;2023-02-01T10:43:22;1.50;99.40
3648;DHT22;1840;48.892;15.312;2023-02-01T10:45:52;1.30;99.60
3648;DHT22;1840;48.892;15.312;2023-02-01T10:48:20;1.20;99.90
3648;DHT22;1840;48.892;15.312;2023-02-01T10:50:53;1.40;99.80
3648;DHT22;1840;48.892;15.312;2023-02-01T10:53:25;1.50;99.40
3648;DHT22;1840;48.892;15.312;2023-02-01T10:55:56;1.50;99.10
3648;DHT22;1840;48.892;15.312;2023-02-01T10:58:27;1.70;99.10
3648;DHT22;1840;48.892;15.312;2023-02-01T11:00:58;1.80;98.70
3648;DHT22;1840;48.892;15.312;2023-02-01T11:03:38;1.70;98.70
3648;DHT22;1840;48.892;15.312;2023-02-01T11:06:19;1.60;98.30
3648;DHT22;1840;48.892;15.312;2023-02-01T11:08:48;1.70;98.50
3648;DHT22;1840;48.892;15.312;2023-02-01T11:11:18;1.80;98.40
3648;DHT22;1840;48.892;15.312;2023-02-01T11:13:53;1.70;98.20
3648;DHT22;1840;48.892;15.312;2023-02-01T11:16:30;1.80;98.30
3648;DHT22;1840;48.892;15.312;2023-02-01T11:19:00;1.90;97.80
3648;DHT22;1840;48.892;15.312;2023-02-01T11:21:29;1.90;97.80
3648;DHT22;1840;48.892;15.312;2023-02-01T11:24:01;1.90;97.70
3648;DHT22;1840;48.892;15.312;2023-02-01T11:26:29;1.60;97.90
3648;DHT22;1840;48.892;15.312;2023-02-01T11:29:02;1.60;97.90
3648;DHT22;1840;48.892;15.312;2023-02-01T11:31:33;1.70;98.10
3648;DHT22;1840;48.892;15.312;2023-02-01T11:34:07;1.60;98.00
3648;DHT22;1840;48.892;15.312;2023-02-01T11:36:36;1.50;98.20
3648;DHT22;1840;48.892;15.312;2023-02-01T11:39:17;1.60;98.10
3648;DHT22;1840;48.892;15.312;2023-02-01T11:41:58;1.70;98.20
3648;DHT22;1840;48.892;15.312;2023-02-01T11:44:31;1.80;97.60
3648;DHT22;1840;48.892;15.312;2023-02-01T11:47:25;1.80;97.30
3648;DHT22;1840;48.892;15.312;2023-02-01T11:49:55;1.90;97.00
3648;DHT22;1840;48.892;15.312;2023-02-01T11:55:42;1.90;97.10
3648;DHT22;1840;48.892;15.312;2023-02-01T11:58:28;2.00;96.70
3648;DHT22;1840;48.892;15.312;2023-02-01T12:01:15;2.30;96.60
3648;DHT22;1840;48.892;15.312;2023-02-01T12:04:10;2.50;96.30
3648;DHT22;1840;48.892;15.312;2023-02-01T12:06:48;2.90;96.20
3648;DHT22;1840;48.892;15.312;2023-02-01T12:09:27;3.00;95.10
3648;DHT22;1840;48.892;15.312;2023-02-01T12:12:06;2.80;95.40
3648;DHT22;1840;48.892;15.312;2023-02-01T12:14:51;3.10;95.30
3648;DHT22;1840;48.892;15.312;2023-02-01T12:20:53;3.10;94.80
3648;DHT22;1840;48.892;15.312;2023-02-01T12:23:38;3.30;94.60
3648;DHT22;1840;48.892;15.312;2023-02-01T12:26:33;3.30;94.40
3648;DHT22;1840;48.892;15.312;2023-02-01T12:32:25;2.70;94.40
3648;DHT22;1840;48.892;15.312;2023-02-01T12:35:21;2.70;94.60
3648;DHT22;1840;48.892;15.312;2023-02-01T12:38:05;2.70;94.20
3648;DHT22;1840;48.892;15.312;2023-02-01T12:40:46;2.90;93.80
3648;DHT22;1840;48.892;15.312;2023-02-01T12:43:19;3.00;93.70
3648;DHT22;1840;48.892;15.312;2023-02-01T12:45:56;3.10;93.70
3648;DHT22;1840;48.892;15.312;2023-02-01T12:48:30;3.10;93.50
3648;DHT22;1840;48.892;15.312;2023-02-01T12:51:02;3.20;93.30
3648;DHT22;1840;48.892;15.312;2023-02-01T12:53:44;3.20;93.10
3648;DHT22;1840;48.892;15.312;2023-02-01T12:56:18;3.40;93.10
3648;DHT22;1840;48.892;15.312;2023-02-01T12:58:50;3.30;93.00
3648;DHT22;1840;48.892;15.312;2023-02-01T13:01:21;3.30;93.00
3648;DHT22;1840;48.892;15.312;2023-02-01T13:03:55;3.20;93.20
3648;DHT22;1840;48.892;15.312;2023-02-01T13:06:29;3.10;93.00
3648;DHT22;1840;48.892;15.312;2023-02-01T13:09:03;3.10;92.80
3648;DHT22;1840;48.892;15.312;2023-02-01T13:11:34;2.90;92.10
3648;DHT22;1840;48.892;15.312;2023-02-01T13:14:15;2.70;92.50
3648;DHT22;1840;48.892;15.312;2023-02-01T13:16:48;2.80;92.50
3648;DHT22;1840;48.892;15.312;2023-02-01T13:19:20;3.00;92.80
3648;DHT22;1840;48.892;15.312;2023-02-01T13:21:51;3.10;92.60
3648;DHT22;1840;48.892;15.312;2023-02-01T13:24:29;2.90;92.60
3648;DHT22;1840;48.892;15.312;2023-02-01T13:26:59;2.90;92.20
3648;DHT22;1840;48.892;15.312;2023-02-01T13:29:29;2.90;92.30
3648;DHT22;1840;48.892;15.312;2023-02-01T13:32:09;3.00;92.30
3648;DHT22;1840;48.892;15.312;2023-02-01T13:35:01;3.20;92.10
3648;DHT22;1840;48.892;15.312;2023-02-01T13:37:44;3.30;91.60
3648;DHT22;1840;48.892;15.312;2023-02-01T13:40:35;3.40;91.50
3648;DHT22;1840;48.892;15.312;2023-02-01T13:43:09;3.50;91.50
3648;DHT22;1840;48.892;15.312;2023-02-01T13:45:44;3.50;92.00
3648;DHT22;1840;48.892;15.312;2023-02-01T13:48:21;3.60;91.90
3648;DHT22;1840;48.892;15.312;2023-02-01T13:50:52;3.40;91.60
3648;DHT22;1840;48.892;15.312;2023-02-01T13:53:25;3.40;91.50
3648;DHT22;1840;48.892;15.312;2023-02-01T13:56:01;3.20;91.40
3648;DHT22;1840;48.892;15.312;2023-02-01T13:58:32;3.10;91.40
3648;DHT22;1840;48.892;15.312;2023-02-01T14:07:18;2.80;91.70
3648;DHT22;1840;48.892;15.312;2023-02-01T14:09:46;2.70;91.70
3648;DHT22;1840;48.892;15.312;2023-02-01T14:12:45;2.60;91.70
3648;DHT22;1840;48.892;15.312;2023-02-01T14:15:26;2.60;91.80
3648;DHT22;1840;48.892;15.312;2023-02-01T14:17:55;2.40;92.10
3648;DHT22;1840;48.892;15.312;2023-02-01T14:20:45;2.40;92.20
3648;DHT22;1840;48.892;15.312;2023-02-01T14:23:23;2.40;92.30
3648;DHT22;1840;48.892;15.312;2023-02-01T14:26:13;2.50;92.10
3648;DHT22;1840;48.892;15.312;2023-02-01T14:28:50;2.40;92.10
3648;DHT22;1840;48.892;15.312;2023-02-01T14:31:39;2.40;92.20
3648;DHT22;1840;48.892;15.312;2023-02-01T14:34:16;2.50;92.00
3648;DHT22;1840;48.892;15.312;2023-02-01T14:36:48;2.50;92.00
3648;DHT22;1840;48.892;15.312;2023-02-01T14:39:26;2.60;92.20
3648;DHT22;1840;48.892;15.312;2023-02-01T14:41:57;2.60;92.20
3648;DHT22;1840;48.892;15.312;2023-02-01T14:44:35;2.60;92.30
3648;DHT22;1840;48.892;15.312;2023-02-01T14:47:09;2.60;92.40
3648;DHT22;1840;48.892;15.312;2023-02-01T14:49:47;2.60;92.10
3648;DHT22;1840;48.892;15.312;2023-02-01T14:52:19;2.40;92.20
3648;DHT22;1840;48.892;15.312;2023-02-01T14:54:51;2.40;92.40
3648;DHT22;1840;48.892;15.312;2023-02-01T14:57:24;2.40;92.50
3648;DHT22;1840;48.892;15.312;2023-02-01T15:00:00;2.40;92.50
3648;DHT22;1840;48.892;15.312;2023-02-01T15:02:35;2.40;92.70
3648;DHT22;1840;48.892;15.312;2023-02-01T15:05:25;2.40;92.50
3648;DHT22;1840;48.892;15.312;2023-02-01T15:07:53;2.40;92.80
3648;DHT22;1840;48.892;15.312;2023-02-01T15:10:23;2.40;92.80
3648;DHT22;1840;48.892;15.312;2023-02-01T15:12:51;2.40;92.50
3648;DHT22;1840;48.892;15.312;2023-02-01T15:15:22;2.40;92.50
3648;DHT22;1840;48.892;15.312;2023-02-01T15:17:53;2.40;92.60
3648;DHT22;1840;48.892;15.312;2023-02-01T15:20:23;2.30;92.50
3648;DHT22;1840;48.892;15.312;2023-02-01T15:22:55;2.30;92.70
3648;DHT22;1840;48.892;15.312;2023-02-01T15:25:26;2.30;92.60
3648;DHT22;1840;48.892;15.312;2023-02-01T15:27:55;2.30;92.60
3648;DHT22;1840;48.892;15.312;2023-02-01T15:30:26;2.10;92.80
3648;DHT22;1840;48.892;15.312;2023-02-01T15:33:05;2.10;93.00
3648;DHT22;1840;48.892;15.312;2023-02-01T15:35:42;2.10;93.10
3648;DHT22;1840;48.892;15.312;2023-02-01T15:38:31;2.00;93.30
3648;DHT22;1840;48.892;15.312;2023-02-01T15:41:02;1.90;93.40
3648;DHT22;1840;48.892;15.312;2023-02-01T15:43:32;2.00;93.60
3648;DHT22;1840;48.892;15.312;2023-02-01T15:46:06;2.00;93.50
3648;DHT22;1840;48.892;15.312;2023-02-01T15:48:38;2.00;93.50
3648;DHT22;1840;48.892;15.312;2023-02-01T15:51:16;2.00;93.70
3648;DHT22;1840;48.892;15.312;2023-02-01T15:53:47;2.10;93.70
3648;DHT22;1840;48.892;15.312;2023-02-01T15:56:20;2.10;93.60
3648;DHT22;1840;48.892;15.312;2023-02-01T15:58:53;2.10;93.60
3648;DHT22;1840;48.892;15.312;2023-02-01T16:01:23;2.00;93.90
3648;DHT22;1840;48.892;15.312;2023-02-01T16:04:02;1.90;93.90
3648;DHT22;1840;48.892;15.312;2023-02-01T16:06:32;1.90;94.00
3648;DHT22;1840;48.892;15.312;2023-02-01T16:09:09;1.80;94.20
3648;DHT22;1840;48.892;15.312;2023-02-01T16:11:48;1.80;94.20
3648;DHT22;1840;48.892;15.312;2023-02-01T16:14:16;1.70;94.50
3648;DHT22;1840;48.892;15.312;2023-02-01T16:16:46;1.40;94.80
3648;DHT22;1840;48.892;15.312;2023-02-01T16:19:14;1.40;95.30
3648;DHT22;1840;48.892;15.312;2023-02-01T16:21:42;1.50;95.00
3648;DHT22;1840;48.892;15.312;2023-02-01T16:24:10;1.60;94.60
3648;DHT22;1840;48.892;15.312;2023-02-01T16:26:38;1.50;94.90
3648;DHT22;1840;48.892;15.312;2023-02-01T16:29:07;1.60;95.10
3648;DHT22;1840;48.892;15.312;2023-02-01T16:31:36;1.80;94.80
3648;DHT22;1840;48.892;15.312;2023-02-01T16:34:13;1.90;94.70
3648;DHT22;1840;48.892;15.312;2023-02-01T16:36:43;1.70;94.80
3648;DHT22;1840;48.892;15.312;2023-02-01T16:39:18;1.70;94.90
3648;DHT22;1840;48.892;15.312;2023-02-01T16:41:46;1.70;95.20
3648;DHT22;1840;48.892;15.312;2023-02-01T16:44:15;1.60;95.00
3648;DHT22;1840;48.892;15.312;2023-02-01T16:46:45;1.80;95.40
3648;DHT22;1840;48.892;15.312;2023-02-01T16:49:18;1.70;94.90
3648;DHT22;1840;48.892;15.312;2023-02-01T16:51:48;1.70;95.10
3648;DHT22;1840;48.892;15.312;2023-02-01T16:54:17;1.70;95.40
3648;DHT22;1840;48.892;15.312;2023-02-01T16:56:45;1.70;95.50